sensor_id;sensor_type;location;lat;lon;timestamp;temperature;humidity
975;DHT22;6115;49.296;10.602;2022-11-28T00:04:31;3.80;73.60
975;DHT22;6115;49.296;10.602;2022-11-28T00:09:32;3.80;73.60
975;DHT22;6115;49.296;10.602;2022-11-28T00:14:32;3.80;73.40
975;DHT22;6115;49.296;10.602;2022-11-28T00:19:33;3.80;73.00
975;DHT22;6115;49.296;10.602;2022-11-28T00:24:33;3.80;73.00
975;DHT22;6115;49.296;10.602;2022-11-28T00:29:34;3.80;72.50
975;DHT22;6115;49.296;10.602;2022-11-28T00:34:34;3.70;72.50
975;DHT22;6115;49.296;10.602;2022-11-28T00:39:35;3.60;72.20
975;DHT22;6115;49.296;10.602;2022-11-28T00:44:36;3.50;72.40
975;DHT22;6115;49.296;10.602;2022-11-28T00:49:36;3.40;72.40
975;DHT22;6115;49.296;10.602;2022-11-28T00:54:37;3.50;72.70
975;DHT22;6115;49.296;10.602;2022-11-28T00:59:37;3.50;73.20
975;DHT22;6115;49.296;10.602;2022-11-28T01:04:38;3.50;73.10
975;DHT22;6115;49.296;10.602;2022-11-28T01:09:39;3.50;73.10
975;DHT22;6115;49.296;10.602;2022-11-28T01:14:39;3.50;72.90
975;DHT22;6115;49.296;10.602;2022-11-28T01:19:40;3.40;72.80
975;DHT22;6115;49.296;10.602;2022-11-28T01:24:40;3.40;73.00
975;DHT22;6115;49.296;10.602;2022-11-28T01:29:41;3.30;73.20
975;DHT22;6115;49.296;10.602;2022-11-28T01:34:41;3.30;73.20
975;DHT22;6115;49.296;10.602;2022-11-28T01:39:42;3.30;73.40
975;DHT22;6115;49.296;10.602;2022-11-28T01:49:49;3.20;73.50
975;DHT22;6115;49.296;10.602;2022-11-28T01:54:54;3.20;73.50
975;DHT22;6115;49.296;10.602;2022-11-28T02:00:04;3.10;74.20
975;DHT22;6115;49.296;10.602;2022-11-28T02:05:06;3.00;74.70
975;DHT22;6115;49.296;10.602;2022-11-28T02:10:08;2.90;75.00
975;DHT22;6115;49.296;10.602;2022-11-28T02:26:18;2.80;77.00
975;DHT22;6115;49.296;10.602;2022-11-28T02:36:52;2.90;77.00
975;DHT22;6115;49.296;10.602;2022-11-28T02:42:05;3.00;77.40
975;DHT22;6115;49.296;10.602;2022-11-28T02:47:12;3.00;77.00
975;DHT22;6115;49.296;10.602;2022-11-28T02:52:21;2.90;76.90
975;DHT22;6115;49.296;10.602;2022-11-28T02:57:33;2.90;77.10
975;DHT22;6115;49.296;10.602;2022-11-28T03:02:34;3.00;76.70
975;DHT22;6115;49.296;10.602;2022-11-28T03:12:52;3.00;76.30
975;DHT22;6115;49.296;10.602;2022-11-28T03:18:22;3.00;76.20
975;DHT22;6115;49.296;10.602;2022-11-28T03:23:43;3.00;76.20
975;DHT22;6115;49.296;10.602;2022-11-28T03:29:06;3.10;76.20
975;DHT22;6115;49.296;10.602;2022-11-28T03:34:13;3.00;75.90
975;DHT22;6115;49.296;10.602;2022-11-28T03:39:22;3.10;76.20
975;DHT22;6115;49.296;10.602;2022-11-28T03:44:28;3.10;76.30
975;DHT22;6115;49.296;10.602;2022-11-28T03:49:40;3.10;76.30
975;DHT22;6115;49.296;10.602;2022-11-28T03:54:55;3.10;76.10
975;DHT22;6115;49.296;10.602;2022-11-28T04:00:02;3.10;76.10
975;DHT22;6115;49.296;10.602;2022-11-28T04:16:11;3.30;76.30
975;DHT22;6115;49.296;10.602;2022-11-28T04:26:59;3.20;76.20
975;DHT22;6115;49.296;10.602;2022-11-28T04:32:02;3.20;76.20
975;DHT22;6115;49.296;10.602;2022-11-28T04:37:05;3.20;76.60
975;DHT22;6115;49.296;10.602;2022-11-28T04:42:12;3.20;76.40
975;DHT22;6115;49.296;10.602;2022-11-28T04:47:15;3.20;76.50
975;DHT22;6115;49.296;10.602;2022-11-28T04:57:40;3.30;76.20
975;DHT22;6115;49.296;10.602;2022-11-28T05:02:43;3.40;76.40
975;DHT22;6115;49.296;10.602;2022-11-28T05:07:45;3.40;76.30
975;DHT22;6115;49.296;10.602;2022-11-28T05:12:45;3.30;76.20
975;DHT22;6115;49.296;10.602;2022-11-28T05:17:46;3.20;76.60
975;DHT22;6115;49.296;10.602;2022-11-28T05:22:46;3.00;77.30
975;DHT22;6115;49.296;10.602;2022-11-28T05:27:47;3.00;77.70
975;DHT22;6115;49.296;10.602;2022-11-28T05:32:48;3.20;77.50
975;DHT22;6115;49.296;10.602;2022-11-28T05:37:48;3.30;77.50
975;DHT22;6115;49.296;10.602;2022-11-28T05:42:49;3.30;76.80
975;DHT22;6115;49.296;10.602;2022-11-28T05:47:49;3.40;76.20
975;DHT22;6115;49.296;10.602;2022-11-28T05:52:50;3.50;75.70
975;DHT22;6115;49.296;10.602;2022-11-28T05:57:50;3.50;75.50
975;DHT22;6115;49.296;10.602;2022-11-28T06:02:51;3.40;75.10
975;DHT22;6115;49.296;10.602;2022-11-28T06:07:52;3.50;75.00
975;DHT22;6115;49.296;10.602;2022-11-28T06:12:52;3.60;74.90
975;DHT22;6115;49.296;10.602;2022-11-28T06:17:53;3.60;74.70
975;DHT22;6115;49.296;10.602;2022-11-28T06:22:53;3.60;74.20
975;DHT22;6115;49.296;10.602;2022-11-28T06:27:54;3.60;73.90
975;DHT22;6115;49.296;10.602;2022-11-28T06:32:55;3.50;73.70
975;DHT22;6115;49.296;10.602;2022-11-28T06:37:55;3.50;73.70
975;DHT22;6115;49.296;10.602;2022-11-28T06:42:56;3.40;73.70
975;DHT22;6115;49.296;10.602;2022-11-28T06:47:56;3.40;73.60
975;DHT22;6115;49.296;10.602;2022-11-28T06:52:57;3.50;73.80
975;DHT22;6115;49.296;10.602;2022-11-28T06:57:57;3.50;73.80
975;DHT22;6115;49.296;10.602;2022-11-28T07:02:58;3.50;73.70
975;DHT22;6115;49.296;10.602;2022-11-28T07:07:59;3.50;73.80
975;DHT22;6115;49.296;10.602;2022-11-28T07:13:00;3.40;73.60
975;DHT22;6115;49.296;10.602;2022-11-28T07:18:00;3.30;73.50
975;DHT22;6115;49.296;10.602;2022-11-28T07:23:01;3.40;73.70
975;DHT22;6115;49.296;10.602;2022-11-28T07:28:01;3.50;73.80
975;DHT22;6115;49.296;10.602;2022-11-28T07:33:02;3.50;73.70
975;DHT22;6115;49.296;10.602;2022-11-28T07:38:03;3.50;73.70
975;DHT22;6115;49.296;10.602;2022-11-28T07:43:03;3.50;73.80
975;DHT22;6115;49.296;10.602;2022-11-28T07:48:04;3.40;73.80
975;DHT22;6115;49.296;10.602;2022-11-28T07:53:05;3.60;73.80
975;DHT22;6115;49.296;10.602;2022-11-28T07:58:05;3.70;73.90
975;DHT22;6115;49.296;10.602;2022-11-28T08:03:06;3.80;74.10
975;DHT22;6115;49.296;10.602;2022-11-28T08:08:06;3.90;74.10
975;DHT22;6115;49.296;10.602;2022-11-28T08:13:07;4.10;73.10
975;DHT22;6115;49.296;10.602;2022-11-28T08:18:07;4.10;72.90
975;DHT22;6115;49.296;10.602;2022-11-28T08:23:08;4.10;73.00
975;DHT22;6115;49.296;10.602;2022-11-28T08:28:09;4.30;72.20
975;DHT22;6115;49.296;10.602;2022-11-28T08:33:09;4.30;72.10
975;DHT22;6115;49.296;10.602;2022-11-28T08:38:10;4.40;72.00
975;DHT22;6115;49.296;10.602;2022-11-28T08:43:11;4.50;71.50
975;DHT22;6115;49.296;10.602;2022-11-28T08:48:11;4.60;71.20
975;DHT22;6115;49.296;10.602;2022-11-28T08:53:12;4.70;70.80
975;DHT22;6115;49.296;10.602;2022-11-28T08:58:13;4.70;70.30
975;DHT22;6115;49.296;10.602;2022-11-28T09:03:18;4.80;70.20
975;DHT22;6115;49.296;10.602;2022-11-28T09:08:20;4.90;70.30
975;DHT22;6115;49.296;10.602;2022-11-28T09:13:21;4.90;69.80
975;DHT22;6115;49.296;10.602;2022-11-28T09:18:21;4.90;68.80
975;DHT22;6115;49.296;10.602;2022-11-28T09:23:22;5.10;68.80
975;DHT22;6115;49.296;10.602;2022-11-28T09:28:23;5.10;68.40
975;DHT22;6115;49.296;10.602;2022-11-28T09:33:23;5.10;68.20
975;DHT22;6115;49.296;10.602;2022-11-28T09:38:24;5.10;67.90
975;DHT22;6115;49.296;10.602;2022-11-28T09:43:39;5.10;68.00
975;DHT22;6115;49.296;10.602;2022-11-28T09:48:48;5.10;68.00
975;DHT22;6115;49.296;10.602;2022-11-28T09:54:16;5.30;68.00
975;DHT22;6115;49.296;10.602;2022-11-28T09:59:26;5.30;67.60
975;DHT22;6115;49.296;10.602;2022-11-28T10:10:07;5.30;67.20
975;DHT22;6115;49.296;10.602;2022-11-28T10:16:15;5.30;67.10
975;DHT22;6115;49.296;10.602;2022-11-28T10:20:57;5.40;66.80
975;DHT22;6115;49.296;10.602;2022-11-28T10:26:04;5.40;67.10
975;DHT22;6115;49.296;10.602;2022-11-28T10:31:10;5.60;67.30
975;DHT22;6115;49.296;10.602;2022-11-28T10:36:38;5.70;66.50
975;DHT22;6115;49.296;10.602;2022-11-28T10:42:17;5.80;66.20
975;DHT22;6115;49.296;10.602;2022-11-28T10:47:46;6.00;66.10
975;DHT22;6115;49.296;10.602;2022-11-28T10:52:59;6.00;65.40
975;DHT22;6115;49.296;10.602;2022-11-28T10:58:18;6.10;65.50
975;DHT22;6115;49.296;10.602;2022-11-28T11:03:27;6.20;64.60
975;DHT22;6115;49.296;10.602;2022-11-28T11:08:33;6.20;64.70
975;DHT22;6115;49.296;10.602;2022-11-28T11:14:02;6.20;64.30
975;DHT22;6115;49.296;10.602;2022-11-28T11:19:03;6.20;64.60
975;DHT22;6115;49.296;10.602;2022-11-28T11:34:26;6.40;64.20
975;DHT22;6115;49.296;10.602;2022-11-28T11:39:27;6.50;64.10
975;DHT22;6115;49.296;10.602;2022-11-28T11:44:30;6.70;64.10
975;DHT22;6115;49.296;10.602;2022-11-28T11:49:37;6.80;63.60
975;DHT22;6115;49.296;10.602;2022-11-28T11:54:39;7.00;63.20
975;DHT22;6115;49.296;10.602;2022-11-28T12:00:09;7.10;62.50
975;DHT22;6115;49.296;10.602;2022-11-28T12:05:22;7.30;62.70
975;DHT22;6115;49.296;10.602;2022-11-28T12:10:27;7.30;62.70
975;DHT22;6115;49.296;10.602;2022-11-28T12:31:58;7.30;61.40
975;DHT22;6115;49.296;10.602;2022-11-28T12:37:33;7.40;61.70
975;DHT22;6115;49.296;10.602;2022-11-28T12:48:12;7.10;61.90
975;DHT22;6115;49.296;10.602;2022-11-28T12:53:39;7.00;62.40
975;DHT22;6115;49.296;10.602;2022-11-28T12:58:53;7.00;62.40
975;DHT22;6115;49.296;10.602;2022-11-28T13:30:49;7.00;63.20
975;DHT22;6115;49.296;10.602;2022-11-28T13:35:52;7.10;63.20
975;DHT22;6115;49.296;10.602;2022-11-28T13:41:11;7.00;63.40
975;DHT22;6115;49.296;10.602;2022-11-28T13:46:15;7.00;63.70
975;DHT22;6115;49.296;10.602;2022-11-28T13:51:45;7.00;63.80
975;DHT22;6115;49.296;10.602;2022-11-28T14:02:34;6.80;64.40
975;DHT22;6115;49.296;10.602;2022-11-28T14:07:35;6.90;64.70
975;DHT22;6115;49.296;10.602;2022-11-28T14:23:53;6.90;64.60
975;DHT22;6115;49.296;10.602;2022-11-28T14:28:57;6.90;65.50
975;DHT22;6115;49.296;10.602;2022-11-28T14:34:08;6.90;66.00
975;DHT22;6115;49.296;10.602;2022-11-28T14:44:49;6.70;67.10
975;DHT22;6115;49.296;10.602;2022-11-28T15:00:30;6.60;68.50
975;DHT22;6115;49.296;10.602;2022-11-28T15:10:56;6.40;69.30
975;DHT22;6115;49.296;10.602;2022-11-28T15:16:03;6.40;70.00
975;DHT22;6115;49.296;10.602;2022-11-28T15:21:06;6.30;70.70
975;DHT22;6115;49.296;10.602;2022-11-28T15:26:28;6.20;71.50
975;DHT22;6115;49.296;10.602;2022-11-28T15:31:29;6.30;71.60
975;DHT22;6115;49.296;10.602;2022-11-28T15:36:30;6.20;71.50
975;DHT22;6115;49.296;10.602;2022-11-28T15:41:30;6.20;71.50
975;DHT22;6115;49.296;10.602;2022-11-28T15:46:33;6.20;72.10
975;DHT22;6115;49.296;10.602;2022-11-28T15:51:34;6.20;72.60
975;DHT22;6115;49.296;10.602;2022-11-28T15:56:34;6.20;72.80
975;DHT22;6115;49.296;10.602;2022-11-28T16:01:37;6.10;73.20
975;DHT22;6115;49.296;10.602;2022-11-28T16:06:39;6.10;73.30
975;DHT22;6115;49.296;10.602;2022-11-28T16:11:47;6.10;73.50
975;DHT22;6115;49.296;10.602;2022-11-28T16:16:48;6.10;73.70
975;DHT22;6115;49.296;10.602;2022-11-28T16:22:01;6.10;73.80
975;DHT22;6115;49.296;10.602;2022-11-28T16:27:05;6.00;74.00
975;DHT22;6115;49.296;10.602;2022-11-28T16:32:19;6.00;74.20
975;DHT22;6115;49.296;10.602;2022-11-28T16:37:26;6.00;74.40
975;DHT22;6115;49.296;10.602;2022-11-28T16:42:28;6.10;74.50
975;DHT22;6115;49.296;10.602;2022-11-28T16:47:30;6.00;74.50
975;DHT22;6115;49.296;10.602;2022-11-28T16:52:55;6.00;74.60
975;DHT22;6115;49.296;10.602;2022-11-28T16:58:29;6.00;74.80
975;DHT22;6115;49.296;10.602;2022-11-28T17:03:58;6.00;75.00
975;DHT22;6115;49.296;10.602;2022-11-28T17:09:00;6.00;75.20
975;DHT22;6115;49.296;10.602;2022-11-28T17:14:02;6.00;75.10
975;DHT22;6115;49.296;10.602;2022-11-28T17:19:05;6.10;75.20
975;DHT22;6115;49.296;10.602;2022-11-28T17:24:25;6.10;75.90
975;DHT22;6115;49.296;10.602;2022-11-28T17:29:26;6.10;74.70
975;DHT22;6115;49.296;10.602;2022-11-28T17:34:32;6.10;74.80
975;DHT22;6115;49.296;10.602;2022-11-28T17:39:33;6.00;75.00
975;DHT22;6115;49.296;10.602;2022-11-28T17:44:35;6.10;75.30
975;DHT22;6115;49.296;10.602;2022-11-28T17:49:36;6.10;75.00
975;DHT22;6115;49.296;10.602;2022-11-28T17:54:37;5.90;75.10
975;DHT22;6115;49.296;10.602;2022-11-28T17:59:38;5.90;75.40
975;DHT22;6115;49.296;10.602;2022-11-28T18:04:38;5.90;75.70
975;DHT22;6115;49.296;10.602;2022-11-28T18:09:39;5.80;75.90
975;DHT22;6115;49.296;10.602;2022-11-28T18:14:39;5.80;75.90
975;DHT22;6115;49.296;10.602;2022-11-28T18:19:40;5.80;75.90
975;DHT22;6115;49.296;10.602;2022-11-28T18:24:40;5.80;75.90
975;DHT22;6115;49.296;10.602;2022-11-28T18:29:41;5.90;76.10
975;DHT22;6115;49.296;10.602;2022-11-28T18:34:42;5.90;76.10
975;DHT22;6115;49.296;10.602;2022-11-28T18:39:42;5.90;76.20
975;DHT22;6115;49.296;10.602;2022-11-28T18:44:43;5.90;76.00
975;DHT22;6115;49.296;10.602;2022-11-28T18:49:43;5.80;76.80
975;DHT22;6115;49.296;10.602;2022-11-28T18:54:44;5.80;76.20
975;DHT22;6115;49.296;10.602;2022-11-28T18:59:45;5.80;76.40
975;DHT22;6115;49.296;10.602;2022-11-28T19:04:46;5.80;76.00
975;DHT22;6115;49.296;10.602;2022-11-28T19:09:46;5.80;76.20
975;DHT22;6115;49.296;10.602;2022-11-28T19:14:47;5.90;76.20
975;DHT22;6115;49.296;10.602;2022-11-28T19:19:47;5.90;76.00
975;DHT22;6115;49.296;10.602;2022-11-28T19:24:48;5.80;76.30
975;DHT22;6115;49.296;10.602;2022-11-28T19:29:48;5.70;76.70
975;DHT22;6115;49.296;10.602;2022-11-28T19:34:49;5.80;77.10
975;DHT22;6115;49.296;10.602;2022-11-28T19:39:51;5.90;76.90
975;DHT22;6115;49.296;10.602;2022-11-28T19:44:52;5.80;76.60
975;DHT22;6115;49.296;10.602;2022-11-28T19:49:52;5.80;76.70
975;DHT22;6115;49.296;10.602;2022-11-28T19:54:53;5.80;76.70
975;DHT22;6115;49.296;10.602;2022-11-28T19:59:53;5.80;76.90
975;DHT22;6115;49.296;10.602;2022-11-28T20:04:54;5.80;77.00
975;DHT22;6115;49.296;10.602;2022-11-28T20:09:55;5.80;77.10
975;DHT22;6115;49.296;10.602;2022-11-28T20:14:55;5.80;76.90
975;DHT22;6115;49.296;10.602;2022-11-28T20:19:56;5.70;77.00
975;DHT22;6115;49.296;10.602;2022-11-28T20:24:56;5.70;77.20
975;DHT22;6115;49.296;10.602;2022-11-28T20:29:57;5.60;77.80
975;DHT22;6115;49.296;10.602;2022-11-28T20:34:58;5.60;78.00
975;DHT22;6115;49.296;10.602;2022-11-28T20:40:01;5.70;78.10
975;DHT22;6115;49.296;10.602;2022-11-28T20:45:01;5.60;78.00
975;DHT22;6115;49.296;10.602;2022-11-28T20:50:03;5.70;78.20
975;DHT22;6115;49.296;10.602;2022-11-28T20:55:04;5.70;78.00
975;DHT22;6115;49.296;10.602;2022-11-28T21:00:05;5.60;78.00
975;DHT22;6115;49.296;10.602;2022-11-28T21:05:06;5.60;78.00
975;DHT22;6115;49.296;10.602;2022-11-28T21:10:07;5.60;78.00
975;DHT22;6115;49.296;10.602;2022-11-28T21:15:08;5.60;77.90
975;DHT22;6115;49.296;10.602;2022-11-28T21:20:09;5.60;77.60
975;DHT22;6115;49.296;10.602;2022-11-28T21:25:09;5.60;77.50
975;DHT22;6115;49.296;10.602;2022-11-28T21:30:10;5.60;77.60
975;DHT22;6115;49.296;10.602;2022-11-28T21:35:10;5.50;77.40
975;DHT22;6115;49.296;10.602;2022-11-28T21:40:12;5.60;77.50
975;DHT22;6115;49.296;10.602;2022-11-28T21:45:13;5.50;77.50
975;DHT22;6115;49.296;10.602;2022-11-28T21:50:13;5.50;77.60
975;DHT22;6115;49.296;10.602;2022-11-28T21:55:14;5.40;77.60
975;DHT22;6115;49.296;10.602;2022-11-28T22:00:15;5.40;77.80
975;DHT22;6115;49.296;10.602;2022-11-28T22:05:16;5.30;78.00
975;DHT22;6115;49.296;10.602;2022-11-28T22:10:16;5.30;78.30
975;DHT22;6115;49.296;10.602;2022-11-28T22:15:17;5.30;79.00
975;DHT22;6115;49.296;10.602;2022-11-28T22:20:18;5.30;78.30
975;DHT22;6115;49.296;10.602;2022-11-28T22:25:19;5.30;78.20
975;DHT22;6115;49.296;10.602;2022-11-28T22:30:19;5.30;78.30
975;DHT22;6115;49.296;10.602;2022-11-28T22:35:20;5.30;78.20
975;DHT22;6115;49.296;10.602;2022-11-28T22:40:21;5.30;78.20
975;DHT22;6115;49.296;10.602;2022-11-28T22:45:21;5.40;78.30
975;DHT22;6115;49.296;10.602;2022-11-28T22:50:23;5.30;78.10
975;DHT22;6115;49.296;10.602;2022-11-28T22:55:24;5.30;78.50
975;DHT22;6115;49.296;10.602;2022-11-28T23:00:24;5.40;78.30
975;DHT22;6115;49.296;10.602;2022-11-28T23:05:25;5.40;78.20
975;DHT22;6115;49.296;10.602;2022-11-28T23:10:25;5.30;78.20
975;DHT22;6115;49.296;10.602;2022-11-28T23:15:26;5.30;78.20
975;DHT22;6115;49.296;10.602;2022-11-28T23:20:26;5.30;78.20
975;DHT22;6115;49.296;10.602;2022-11-28T23:25:27;5.20;78.30
975;DHT22;6115;49.296;10.602;2022-11-28T23:30:27;5.20;78.30
975;DHT22;6115;49.296;10.602;2022-11-28T23:35:28;5.30;78.40
975;DHT22;6115;49.296;10.602;2022-11-28T23:40:29;5.30;78.30
975;DHT22;6115;49.296;10.602;2022-11-28T23:45:29;5.30;78.10
975;DHT22;6115;49.296;10.602;2022-11-28T23:50:30;5.30;78.20
975;DHT22;6115;49.296;10.602;2022-11-28T23:55:32;5.40;78.30
